createdAt,value
2017-12-31T00:00:46.767Z,90.70
2017-12-31T00:03:14.229Z,90.70
2017-12-31T00:05:41.668Z,90.80
2017-12-31T00:08:09.164Z,90.80
2017-12-31T00:10:36.639Z,90.90
2017-12-31T00:13:04.060Z,91.00
2017-12-31T00:15:31.582Z,91.30
2017-12-31T00:17:59.000Z,91.00
2017-12-31T00:20:26.424Z,91.00
2017-12-31T00:22:53.839Z,91.00
2017-12-31T00:25:22.039Z,91.30
2017-12-31T00:27:50.227Z,91.10
2017-12-31T00:30:18.420Z,91.20
2017-12-31T00:32:46.607Z,91.30
2017-12-31T00:35:14.832Z,91.30
2017-12-31T00:37:42.276Z,91.30
2017-12-31T00:40:10.523Z,91.40
2017-12-31T00:42:37.939Z,91.50
2017-12-31T00:45:05.380Z,91.60
2017-12-31T00:47:33.596Z,91.80
2017-12-31T00:50:01.023Z,91.70
2017-12-31T00:52:28.444Z,91.90
2017-12-31T00:54:55.908Z,91.90
2017-12-31T00:57:23.319Z,91.90
2017-12-31T00:59:50.839Z,92.10
2017-12-31T01:02:18.263Z,92.10
2017-12-31T01:04:45.695Z,92.20
2017-12-31T01:07:13.111Z,92.20
2017-12-31T01:09:40.544Z,92.40
2017-12-31T01:12:07.970Z,92.30
2017-12-31T01:14:36.259Z,92.50
2017-12-31T01:17:03.679Z,92.50
2017-12-31T01:19:31.105Z,92.50
2017-12-31T01:21:58.523Z,92.50
2017-12-31T01:24:26.056Z,92.40
2017-12-31T01:26:53.483Z,92.40
2017-12-31T01:29:20.914Z,92.40
2017-12-31T01:31:48.359Z,92.50
2017-12-31T01:34:15.776Z,92.60
2017-12-31T01:36:43.301Z,92.70
2017-12-31T01:39:10.770Z,92.70
2017-12-31T01:41:38.200Z,93.10
2017-12-31T01:44:05.815Z,92.80
2017-12-31T01:46:33.235Z,92.80
2017-12-31T01:49:02.585Z,92.90
2017-12-31T01:51:30.067Z,92.90
2017-12-31T01:53:57.482Z,92.90
2017-12-31T01:56:25.012Z,92.90
2017-12-31T01:58:52.423Z,93.00
2017-12-31T02:01:19.847Z,93.00
2017-12-31T02:03:47.266Z,93.10
2017-12-31T02:06:14.767Z,93.10
2017-12-31T02:08:42.926Z,93.20
2017-12-31T02:11:11.144Z,93.20
2017-12-31T02:13:38.625Z,93.20
2017-12-31T02:16:06.063Z,93.20
2017-12-31T02:18:34.281Z,93.30
2017-12-31T02:21:01.695Z,93.30
2017-12-31T02:23:29.126Z,93.40
2017-12-31T02:25:56.539Z,93.40
2017-12-31T02:28:23.975Z,93.40
2017-12-31T02:30:51.407Z,93.30
2017-12-31T02:33:19.599Z,93.40
2017-12-31T02:35:47.083Z,93.40
2017-12-31T02:38:14.512Z,93.40
2017-12-31T02:40:41.936Z,93.40
2017-12-31T02:43:09.390Z,93.40
2017-12-31T02:45:37.064Z,93.40
2017-12-31T02:48:04.487Z,93.40
2017-12-31T02:50:31.907Z,93.40
2017-12-31T02:52:59.334Z,93.40
2017-12-31T02:55:26.779Z,93.40
2017-12-31T02:57:54.311Z,93.40
2017-12-31T03:00:21.739Z,93.20
2017-12-31T03:02:49.971Z,93.50
2017-12-31T03:05:17.386Z,93.20
2017-12-31T03:07:44.837Z,93.10
2017-12-31T03:10:12.272Z,92.90
2017-12-31T03:12:39.720Z,92.90
2017-12-31T03:15:07.928Z,92.70
2017-12-31T03:17:35.411Z,92.70
2017-12-31T03:20:02.891Z,92.60
2017-12-31T03:22:30.310Z,92.50
2017-12-31T03:24:58.503Z,92.40
2017-12-31T03:27:26.687Z,92.10
2017-12-31T03:29:54.920Z,92.00
2017-12-31T03:32:22.323Z,92.00
2017-12-31T03:34:49.838Z,91.80
2017-12-31T03:37:18.003Z,91.60
2017-12-31T03:39:46.212Z,91.50
2017-12-31T03:42:13.635Z,91.50
2017-12-31T03:44:41.063Z,91.40
2017-12-31T03:47:08.479Z,91.40
2017-12-31T03:49:36.688Z,90.90
2017-12-31T03:52:04.124Z,91.10
2017-12-31T03:54:33.051Z,91.00
2017-12-31T03:57:01.240Z,90.90
2017-12-31T03:59:29.427Z,90.80
2017-12-31T04:01:57.611Z,90.80
2017-12-31T04:04:25.802Z,90.70
2017-12-31T04:06:53.987Z,90.60
2017-12-31T04:09:22.187Z,90.40
2017-12-31T04:11:49.771Z,90.40
2017-12-31T04:14:17.946Z,90.20
2017-12-31T04:16:45.358Z,90.20
2017-12-31T04:19:12.802Z,90.20
2017-12-31T04:21:40.228Z,89.80
2017-12-31T04:24:07.669Z,89.70
2017-12-31T04:26:35.095Z,90.00
2017-12-31T04:29:02.576Z,89.10
2017-12-31T04:31:30.004Z,88.70
2017-12-31T04:33:58.187Z,88.20
2017-12-31T04:36:25.695Z,88.30
2017-12-31T04:38:53.119Z,88.70
2017-12-31T04:41:20.647Z,87.70
2017-12-31T04:43:48.111Z,87.70
2017-12-31T04:46:15.556Z,87.20
2017-12-31T04:48:43.737Z,87.10
2017-12-31T04:51:11.928Z,87.00
2017-12-31T04:53:40.175Z,87.40
2017-12-31T04:56:07.615Z,87.40
2017-12-31T04:58:35.060Z,87.30
2017-12-31T05:01:03.267Z,87.10
2017-12-31T05:03:30.714Z,87.00
2017-12-31T05:05:58.927Z,86.20
2017-12-31T05:08:26.359Z,86.20
2017-12-31T05:10:54.828Z,85.80
2017-12-31T05:13:23.759Z,85.60
2017-12-31T05:15:52.691Z,85.40
2017-12-31T05:18:20.115Z,85.40
2017-12-31T05:20:47.548Z,86.10
2017-12-31T05:23:14.963Z,85.20
2017-12-31T05:25:43.175Z,84.90
2017-12-31T05:28:10.597Z,84.90
2017-12-31T05:30:38.028Z,84.90
2017-12-31T05:33:05.447Z,84.40
2017-12-31T05:35:32.875Z,84.40
2017-12-31T05:38:00.336Z,84.20
2017-12-31T05:40:27.762Z,84.40
2017-12-31T05:42:55.952Z,84.40
2017-12-31T05:45:23.375Z,84.20
2017-12-31T05:47:50.803Z,84.10
2017-12-31T05:50:19.004Z,83.40
2017-12-31T05:52:46.419Z,83.40
2017-12-31T05:55:13.945Z,83.60
2017-12-31T05:57:41.367Z,83.20
2017-12-31T06:00:08.806Z,83.20
2017-12-31T06:02:36.235Z,83.50
2017-12-31T06:05:04.447Z,82.90
2017-12-31T06:07:31.906Z,82.80
2017-12-31T06:09:59.383Z,82.60
2017-12-31T06:12:26.807Z,83.00
2017-12-31T06:14:54.996Z,82.80
2017-12-31T06:17:22.507Z,82.60
2017-12-31T06:19:49.984Z,82.40
2017-12-31T06:22:17.415Z,82.70
2017-12-31T06:24:45.595Z,82.30
2017-12-31T06:27:13.791Z,82.20
2017-12-31T06:29:41.984Z,81.60
2017-12-31T06:32:10.175Z,82.40
2017-12-31T06:34:38.363Z,81.80
2017-12-31T06:37:06.575Z,81.40
2017-12-31T06:39:33.999Z,81.30
2017-12-31T06:42:02.195Z,82.40
2017-12-31T06:44:30.371Z,81.60
2017-12-31T06:46:58.588Z,80.30
2017-12-31T06:49:26.064Z,80.70
2017-12-31T06:51:53.492Z,81.30
2017-12-31T06:54:20.907Z,80.90
2017-12-31T06:56:48.374Z,81.20
2017-12-31T06:59:16.541Z,80.80
2017-12-31T07:01:44.730Z,80.40
2017-12-31T07:04:12.228Z,80.40
2017-12-31T07:06:39.707Z,81.10
2017-12-31T07:09:07.134Z,80.50
2017-12-31T07:11:35.320Z,79.90
2017-12-31T07:14:03.532Z,80.20
2017-12-31T07:16:30.950Z,80.10
2017-12-31T07:18:58.374Z,79.60
2017-12-31T07:21:25.799Z,79.50
2017-12-31T07:23:53.987Z,80.30
2017-12-31T07:26:22.211Z,80.70
2017-12-31T07:28:49.680Z,80.00
2017-12-31T07:31:17.852Z,79.70
2017-12-31T07:33:45.273Z,79.70
2017-12-31T07:36:12.688Z,79.60
2017-12-31T07:38:40.883Z,79.80
2017-12-31T07:41:08.368Z,79.70
2017-12-31T07:43:35.942Z,80.00
2017-12-31T07:46:03.381Z,79.60
2017-12-31T07:48:30.803Z,80.20
2017-12-31T07:50:58.227Z,80.10
2017-12-31T07:53:25.676Z,80.20
2017-12-31T07:55:53.886Z,80.20
2017-12-31T07:58:21.365Z,80.20
2017-12-31T08:00:48.804Z,80.50
2017-12-31T08:03:16.228Z,80.20
2017-12-31T08:05:43.643Z,80.20
2017-12-31T08:08:11.846Z,80.40
2017-12-31T08:10:39.259Z,80.40
2017-12-31T08:13:06.712Z,80.90
2017-12-31T08:15:34.163Z,79.30
2017-12-31T08:18:01.597Z,80.10
2017-12-31T08:20:29.014Z,80.80
2017-12-31T08:22:57.447Z,79.80
2017-12-31T08:25:24.867Z,79.70
2017-12-31T08:27:52.302Z,80.30
2017-12-31T08:30:19.731Z,81.10
2017-12-31T08:32:47.154Z,80.30
2017-12-31T08:35:14.655Z,80.40
2017-12-31T08:37:42.115Z,80.70
2017-12-31T08:40:09.541Z,80.60
2017-12-31T08:42:37.723Z,80.40
2017-12-31T08:45:05.159Z,80.40
2017-12-31T08:47:32.616Z,81.40
2017-12-31T08:50:00.040Z,80.90
2017-12-31T08:52:27.513Z,80.70
2017-12-31T08:54:55.702Z,81.40
2017-12-31T08:57:23.918Z,80.90
2017-12-31T08:59:51.392Z,80.80
2017-12-31T09:02:18.863Z,81.10
2017-12-31T09:04:46.286Z,81.50
2017-12-31T09:07:13.803Z,81.20
2017-12-31T09:09:41.234Z,81.10
2017-12-31T09:12:09.427Z,82.10
2017-12-31T09:14:37.736Z,81.20
2017-12-31T09:17:06.012Z,81.20
2017-12-31T09:19:34.216Z,81.40
2017-12-31T09:22:01.687Z,81.40
2017-12-31T09:24:29.159Z,81.50
2017-12-31T09:26:56.579Z,81.80
2017-12-31T09:29:24.003Z,81.90
2017-12-31T09:31:51.464Z,82.30
2017-12-31T09:34:18.891Z,81.90
2017-12-31T09:36:46.307Z,82.20
2017-12-31T09:39:13.772Z,82.10
2017-12-31T09:41:41.192Z,82.70
2017-12-31T09:44:08.608Z,81.70
2017-12-31T09:46:36.043Z,82.10
2017-12-31T09:49:04.268Z,82.60
2017-12-31T09:51:31.696Z,81.90
2017-12-31T09:53:59.927Z,82.40
2017-12-31T09:56:27.352Z,81.70
2017-12-31T09:58:55.603Z,82.20
2017-12-31T10:01:23.045Z,82.10
2017-12-31T10:03:50.523Z,82.00
2017-12-31T10:06:17.991Z,81.50
2017-12-31T10:08:45.375Z,81.40
2017-12-31T10:11:12.803Z,82.30
2017-12-31T10:13:40.995Z,81.60
2017-12-31T10:16:08.480Z,81.60
2017-12-31T10:18:36.051Z,81.70
2017-12-31T10:21:03.523Z,82.30
2017-12-31T10:23:30.946Z,81.20
2017-12-31T10:25:58.384Z,81.10
2017-12-31T10:28:25.808Z,80.70
2017-12-31T10:30:54.001Z,79.90
2017-12-31T10:33:21.424Z,80.00
2017-12-31T10:35:48.847Z,79.80
2017-12-31T10:38:16.436Z,79.60
2017-12-31T10:40:43.855Z,79.60
2017-12-31T10:43:12.047Z,79.10
2017-12-31T10:45:39.507Z,78.80
2017-12-31T10:48:06.912Z,79.30
2017-12-31T10:50:34.494Z,79.30
2017-12-31T10:53:01.939Z,78.80
2017-12-31T10:55:30.132Z,79.40
2017-12-31T10:57:58.319Z,79.30
2017-12-31T11:00:25.743Z,79.30
2017-12-31T11:02:53.712Z,79.10
2017-12-31T11:05:21.123Z,78.50
2017-12-31T11:07:49.315Z,78.80
2017-12-31T11:10:17.507Z,78.50
2017-12-31T11:12:45.707Z,78.10
2017-12-31T11:15:13.123Z,78.00
2017-12-31T11:17:40.547Z,78.70
2017-12-31T11:20:07.969Z,77.80
2017-12-31T11:22:35.507Z,78.00
2017-12-31T11:25:03.064Z,77.70
2017-12-31T11:27:30.487Z,78.20
2017-12-31T11:29:57.912Z,78.50
2017-12-31T11:32:25.370Z,78.20
2017-12-31T11:34:52.836Z,78.50
2017-12-31T11:37:20.264Z,78.60
2017-12-31T11:39:47.683Z,79.00
2017-12-31T11:42:15.116Z,79.00
2017-12-31T11:44:42.623Z,78.80
2017-12-31T11:47:10.062Z,79.20
2017-12-31T11:49:38.243Z,79.30
2017-12-31T11:52:06.436Z,79.00
2017-12-31T11:54:34.618Z,78.60
2017-12-31T11:57:02.811Z,79.20
2017-12-31T11:59:31.019Z,79.30
2017-12-31T12:01:58.445Z,79.30
2017-12-31T12:04:25.867Z,79.10
2017-12-31T12:06:53.300Z,79.20
2017-12-31T12:09:21.487Z,79.80
2017-12-31T12:11:49.702Z,80.20
2017-12-31T12:14:17.132Z,80.20
2017-12-31T12:16:44.557Z,79.50
2017-12-31T12:19:11.979Z,80.20
2017-12-31T12:21:40.159Z,79.70
2017-12-31T12:24:08.351Z,80.10
2017-12-31T12:26:36.540Z,79.30
2017-12-31T12:29:04.735Z,79.70
2017-12-31T12:31:32.919Z,79.50
2017-12-31T12:34:01.129Z,79.70
2017-12-31T12:36:28.544Z,79.70
2017-12-31T12:38:55.967Z,79.20
2017-12-31T12:41:23.403Z,79.00
2017-12-31T12:43:51.594Z,78.30
2017-12-31T12:46:19.807Z,78.00
2017-12-31T12:48:47.276Z,78.00
2017-12-31T12:51:14.747Z,78.50
2017-12-31T12:53:42.223Z,77.80
2017-12-31T12:56:09.643Z,77.60
2017-12-31T12:58:37.311Z,77.50
2017-12-31T13:01:05.140Z,78.50
2017-12-31T13:03:32.612Z,77.20
2017-12-31T13:06:00.076Z,77.10
2017-12-31T13:08:27.499Z,76.70
2017-12-31T13:10:55.017Z,76.70
2017-12-31T13:13:22.439Z,76.70
2017-12-31T13:15:49.879Z,76.40
2017-12-31T13:18:17.304Z,76.70
2017-12-31T13:20:45.496Z,76.90
2017-12-31T13:23:12.927Z,76.90
2017-12-31T13:25:40.455Z,76.40
2017-12-31T13:28:07.880Z,76.00
2017-12-31T13:30:36.068Z,77.00
2017-12-31T13:33:04.299Z,76.30
2017-12-31T13:35:31.749Z,76.20
2017-12-31T13:37:59.234Z,76.10
2017-12-31T13:40:26.703Z,76.50
2017-12-31T13:42:54.139Z,76.10
2017-12-31T13:45:22.370Z,76.60
2017-12-31T13:47:49.831Z,76.60
2017-12-31T13:50:17.304Z,76.70
2017-12-31T13:52:46.918Z,75.60
2017-12-31T13:55:14.395Z,75.50
2017-12-31T13:57:41.818Z,75.50
2017-12-31T14:00:10.003Z,76.50
2017-12-31T14:02:37.519Z,75.60
2017-12-31T14:05:05.012Z,75.60
2017-12-31T14:07:32.435Z,76.60
2017-12-31T14:10:00.618Z,75.30
2017-12-31T14:12:28.815Z,74.80
2017-12-31T14:14:56.304Z,74.80
2017-12-31T14:17:23.731Z,75.40
2017-12-31T14:19:51.155Z,76.20
2017-12-31T14:22:18.579Z,75.20
2017-12-31T14:24:46.791Z,76.10
2017-12-31T14:27:14.221Z,76.10
2017-12-31T14:29:41.732Z,75.70
2017-12-31T14:32:09.203Z,76.20
2017-12-31T14:34:36.627Z,76.10
2017-12-31T14:37:04.051Z,75.70
2017-12-31T14:39:31.511Z,74.30
2017-12-31T14:41:58.927Z,74.60
2017-12-31T14:44:26.448Z,74.10
2017-12-31T14:46:53.958Z,74.20
2017-12-31T14:49:21.491Z,73.50
2017-12-31T14:51:48.927Z,73.40
2017-12-31T14:54:17.123Z,73.70
2017-12-31T14:56:45.319Z,72.90
2017-12-31T14:59:12.803Z,72.90
2017-12-31T15:01:40.255Z,72.70
2017-12-31T15:04:08.435Z,72.80
2017-12-31T15:06:36.650Z,73.10
2017-12-31T15:09:04.116Z,73.00
2017-12-31T15:11:31.588Z,73.10
2017-12-31T15:13:59.015Z,71.80
2017-12-31T15:16:26.558Z,72.30
2017-12-31T15:18:54.017Z,72.80
2017-12-31T15:21:21.435Z,72.70
2017-12-31T15:23:49.691Z,72.40
2017-12-31T15:26:17.194Z,72.40
2017-12-31T15:28:44.653Z,72.50
2017-12-31T15:31:12.144Z,72.90
2017-12-31T15:33:40.411Z,72.90
2017-12-31T15:36:07.827Z,72.90
2017-12-31T15:38:35.264Z,72.80
2017-12-31T15:41:02.684Z,72.80
2017-12-31T15:43:30.124Z,73.00
2017-12-31T15:45:57.546Z,72.90
2017-12-31T15:48:25.107Z,73.40
2017-12-31T15:50:52.540Z,73.50
2017-12-31T15:53:19.951Z,73.30
2017-12-31T15:55:47.375Z,73.50
2017-12-31T15:58:14.799Z,73.20
2017-12-31T16:00:42.224Z,73.10
2017-12-31T16:03:09.667Z,72.80
2017-12-31T16:05:37.368Z,72.80
2017-12-31T16:08:04.832Z,72.80
2017-12-31T16:10:32.246Z,72.70
2017-12-31T16:12:59.703Z,72.70
2017-12-31T16:15:27.172Z,72.30
2017-12-31T16:17:54.612Z,72.50
2017-12-31T16:20:22.027Z,72.30
2017-12-31T16:22:49.544Z,72.20
2017-12-31T16:25:16.975Z,72.60
2017-12-31T16:27:44.491Z,72.90
2017-12-31T16:30:11.920Z,72.90
2017-12-31T16:32:40.158Z,73.30
2017-12-31T16:35:07.575Z,73.30
2017-12-31T16:37:35.761Z,74.00
2017-12-31T16:40:03.186Z,73.50
2017-12-31T16:42:30.612Z,73.70
2017-12-31T16:44:58.802Z,74.70
2017-12-31T16:47:26.995Z,74.60
2017-12-31T16:49:54.419Z,74.60
2017-12-31T16:52:21.845Z,75.00
2017-12-31T16:54:49.267Z,75.50
2017-12-31T16:57:16.695Z,74.90
2017-12-31T16:59:44.153Z,75.10
2017-12-31T17:02:11.632Z,75.20
2017-12-31T17:04:39.050Z,75.40
2017-12-31T17:07:08.212Z,76.20
2017-12-31T17:09:35.627Z,75.50
2017-12-31T17:12:04.572Z,74.80
2017-12-31T17:14:32.064Z,74.80
2017-12-31T17:16:59.481Z,74.90
2017-12-31T17:19:27.704Z,75.20
2017-12-31T17:21:55.119Z,75.20
2017-12-31T17:24:22.643Z,75.60
2017-12-31T17:26:50.059Z,75.00
2017-12-31T17:29:17.581Z,75.40
2017-12-31T17:31:45.000Z,75.00
2017-12-31T17:34:12.431Z,75.40
2017-12-31T17:36:39.888Z,75.00
2017-12-31T17:39:07.406Z,75.70
2017-12-31T17:41:34.814Z,75.80
2017-12-31T17:44:02.243Z,75.30
2017-12-31T17:46:31.176Z,75.10
2017-12-31T17:48:59.384Z,74.80
2017-12-31T17:51:26.856Z,74.80
2017-12-31T17:53:54.284Z,75.10
2017-12-31T17:56:21.795Z,75.10
2017-12-31T17:58:49.223Z,74.10
2017-12-31T18:01:16.740Z,75.20
2017-12-31T18:03:44.171Z,75.30
2017-12-31T18:06:12.352Z,73.90
2017-12-31T18:08:40.579Z,76.10
2017-12-31T18:11:08.000Z,75.20
2017-12-31T18:13:35.429Z,74.80
2017-12-31T18:16:02.891Z,74.70
2017-12-31T18:18:30.316Z,75.10
2017-12-31T18:20:58.503Z,74.30
2017-12-31T18:23:25.943Z,74.30
2017-12-31T18:25:53.384Z,74.90
2017-12-31T18:28:20.849Z,74.30
2017-12-31T18:30:48.275Z,73.60
2017-12-31T18:33:15.788Z,73.90
2017-12-31T18:35:43.260Z,73.80
2017-12-31T18:38:11.418Z,73.50
2017-12-31T18:40:39.611Z,73.40
2017-12-31T18:43:07.801Z,73.00
2017-12-31T18:45:35.991Z,72.60
2017-12-31T18:48:03.408Z,72.60
2017-12-31T18:50:30.947Z,72.80
2017-12-31T18:52:58.420Z,73.30
2017-12-31T18:55:25.844Z,73.10
2017-12-31T18:57:53.268Z,73.60
2017-12-31T19:00:20.695Z,73.30
2017-12-31T19:02:48.908Z,73.50
2017-12-31T19:05:16.339Z,73.40
2017-12-31T19:07:43.759Z,74.20
2017-12-31T19:10:11.183Z,73.20
2017-12-31T19:12:39.366Z,74.10
2017-12-31T19:15:06.804Z,74.00
2017-12-31T19:17:34.228Z,73.90
2017-12-31T19:20:01.650Z,74.20
2017-12-31T19:22:29.062Z,74.60
2017-12-31T19:24:56.492Z,73.30
2017-12-31T19:27:23.907Z,73.50
2017-12-31T19:29:51.335Z,73.60
2017-12-31T19:32:18.764Z,73.40
2017-12-31T19:34:46.183Z,73.20
2017-12-31T19:37:13.691Z,74.30
2017-12-31T19:39:41.115Z,74.50
2017-12-31T19:42:08.541Z,73.80
2017-12-31T19:44:35.980Z,73.80
2017-12-31T19:47:04.164Z,73.00
2017-12-31T19:49:32.360Z,73.00
2017-12-31T19:52:00.555Z,72.70
2017-12-31T19:54:28.026Z,72.70
2017-12-31T19:56:55.446Z,73.10
2017-12-31T19:59:22.879Z,73.70
2017-12-31T20:01:50.343Z,74.00
2017-12-31T20:04:17.767Z,72.90
2017-12-31T20:06:45.947Z,73.50
2017-12-31T20:09:13.371Z,72.70
2017-12-31T20:11:40.830Z,72.90
2017-12-31T20:14:08.259Z,73.40
2017-12-31T20:16:35.676Z,74.80
2017-12-31T20:19:03.135Z,74.70
2017-12-31T20:21:30.611Z,73.30
2017-12-31T20:23:58.079Z,73.50
2017-12-31T20:26:25.507Z,74.40
2017-12-31T20:28:52.927Z,74.00
2017-12-31T20:31:20.359Z,74.30
2017-12-31T20:33:48.673Z,74.00
2017-12-31T20:36:16.843Z,74.50
2017-12-31T20:38:45.043Z,74.80
2017-12-31T20:41:12.467Z,74.80
2017-12-31T20:43:39.882Z,74.50
2017-12-31T20:46:07.495Z,74.50
2017-12-31T20:48:34.920Z,74.80
2017-12-31T20:51:02.393Z,74.70
2017-12-31T20:53:29.815Z,74.90
2017-12-31T20:55:57.231Z,74.50
2017-12-31T20:58:24.708Z,74.40
2017-12-31T21:00:52.129Z,73.90
2017-12-31T21:03:19.543Z,73.50
2017-12-31T21:05:47.007Z,73.80
2017-12-31T21:08:14.476Z,73.90
2017-12-31T21:10:41.903Z,73.10
2017-12-31T21:13:09.319Z,72.60
2017-12-31T21:15:36.743Z,73.50
2017-12-31T21:18:04.928Z,73.10
2017-12-31T21:20:32.352Z,73.50
2017-12-31T21:22:59.820Z,73.20
2017-12-31T21:25:27.245Z,73.60
2017-12-31T21:27:55.428Z,72.90
2017-12-31T21:30:23.656Z,73.10
2017-12-31T21:32:51.071Z,72.40
2017-12-31T21:35:18.508Z,72.20
2017-12-31T21:37:45.930Z,72.70
2017-12-31T21:40:14.151Z,73.30
2017-12-31T21:42:41.575Z,73.20
2017-12-31T21:45:09.806Z,73.00
2017-12-31T21:47:37.987Z,75.40
2017-12-31T21:50:05.419Z,74.70
2017-12-31T21:52:32.831Z,74.90
2017-12-31T21:55:00.255Z,74.50
2017-12-31T21:57:27.675Z,73.50
2017-12-31T21:59:55.135Z,73.00
2017-12-31T22:02:22.603Z,72.80
2017-12-31T22:04:50.035Z,73.40
2017-12-31T22:07:18.219Z,72.60
2017-12-31T22:09:46.415Z,73.50
2017-12-31T22:12:14.632Z,73.30
2017-12-31T22:14:42.059Z,73.30
2017-12-31T22:17:09.572Z,73.10
2017-12-31T22:19:37.151Z,72.70
2017-12-31T22:22:04.567Z,73.10
2017-12-31T22:24:31.990Z,73.00
2017-12-31T22:26:59.454Z,74.00
2017-12-31T22:29:26.876Z,73.20
2017-12-31T22:31:54.391Z,72.70
2017-12-31T22:34:21.866Z,72.20
2017-12-31T22:36:49.288Z,72.10
2017-12-31T22:39:17.471Z,71.50
2017-12-31T22:41:44.988Z,71.40
2017-12-31T22:44:13.143Z,70.20
2017-12-31T22:46:41.335Z,70.10
2017-12-31T22:49:09.523Z,70.00
2017-12-31T22:51:37.714Z,69.90
2017-12-31T22:54:05.903Z,70.40
2017-12-31T22:56:33.333Z,70.40
2017-12-31T22:59:00.760Z,69.70
2017-12-31T23:01:28.215Z,70.10
2017-12-31T23:03:55.635Z,70.40
2017-12-31T23:06:23.167Z,70.10
2017-12-31T23:08:50.586Z,70.20
2017-12-31T23:11:18.024Z,69.90
2017-12-31T23:13:45.474Z,69.80
2017-12-31T23:16:12.944Z,70.40
2017-12-31T23:18:40.412Z,69.80
2017-12-31T23:21:07.834Z,69.70
2017-12-31T23:23:36.763Z,69.20
2017-12-31T23:26:04.979Z,69.00
2017-12-31T23:28:32.398Z,69.10
2017-12-31T23:31:00.594Z,69.00
2017-12-31T23:33:28.827Z,69.20
2017-12-31T23:35:56.258Z,69.10
2017-12-31T23:38:24.432Z,69.50
2017-12-31T23:40:52.635Z,69.70
2017-12-31T23:43:20.850Z,70.20
2017-12-31T23:45:48.316Z,70.10
2017-12-31T23:48:15.784Z,69.90
2017-12-31T23:50:43.203Z,70.20
2017-12-31T23:53:10.627Z,70.40
2017-12-31T23:55:38.052Z,70.80
2017-12-31T23:58:05.475Z,70.80
